Time;durP1;ratioP1;P1;durP2;ratioP2;P2;SDS_P1;SDS_P2;PMS_P1;PMS_P2;Temp;Humidity;BMP_temperature;BMP_pressure;BME280_temperature;BME280_humidity;BME280_pressure;Samples;Min_cycle;Max_cycle;Signal;HPM_P1;HPM_P2
2023/01/26 00:02:23;;;;;;;0.13;0.13;;;-0.10;99.90;12.80;163505.00;;;;4991242;28;20235;-76
2023/01/26 00:04:51;;;;;;;0.10;0.10;;;-0.10;99.90;12.80;163505.00;;;;4993327;28;20200;-76
2023/01/26 00:07:19;;;;;;;0.10;0.10;;;-0.10;99.90;12.80;163505.00;;;;4993299;28;20294;-76
2023/01/26 00:09:47;;;;;;;0.10;0.10;;;-0.10;99.90;12.80;163505.00;;;;4970393;28;20884;-74
2023/01/26 00:12:15;;;;;;;0.10;0.10;;;-0.10;99.90;12.80;163505.00;;;;4974250;28;20228;-75
2023/01/26 00:14:50;;;;;;;0.10;0.10;;;-0.10;99.90;12.80;163505.00;;;;4988648;28;20203;-74
2023/01/26 00:17:26;;;;;;;0.10;0.10;;;-0.10;99.90;12.80;163505.00;;;;4984424;28;20205;-75
2023/01/26 00:19:57;;;;;;;0.10;0.10;;;-0.10;99.90;12.80;163505.00;;;;4986290;28;20687;-76
2023/01/26 00:22:27;;;;;;;0.10;0.10;;;-0.10;99.90;12.80;163505.00;;;;4994004;28;20313;-76
2023/01/26 00:24:55;;;;;;;0.20;0.20;;;-0.10;99.90;12.80;163505.00;;;;4989353;28;20199;-75
2023/01/26 00:27:23;;;;;;;0.10;0.10;;;-0.10;99.90;12.80;163505.00;;;;4982063;28;20208;-77
2023/01/26 00:29:53;;;;;;;0.15;0.15;;;-0.10;99.90;12.80;163505.00;;;;4983890;28;20193;-76
2023/01/26 00:32:21;;;;;;;0.10;0.10;;;-0.10;99.90;12.80;163505.00;;;;4966123;28;20225;-77
2023/01/26 00:35:34;;;;;;;0.10;0.10;;;-0.10;99.90;12.80;163505.00;;;;4991406;28;20625;-77
2023/01/26 00:38:05;;;;;;;0.10;0.10;;;-0.10;99.90;12.80;163505.00;;;;4986944;28;20204;-75
2023/01/26 00:40:34;;;;;;;0.10;0.10;;;0.00;99.90;12.80;163505.00;;;;4968697;28;20244;-76
2023/01/26 00:43:02;;;;;;;0.10;0.10;;;0.10;99.90;12.80;163505.00;;;;4985710;28;20299;-76
2023/01/26 00:45:31;;;;;;;0.10;0.10;;;0.10;99.90;12.80;163505.00;;;;4988024;28;20200;-76
2023/01/26 00:48:00;;;;;;;0.10;0.10;;;0.10;99.90;12.80;163505.00;;;;4990146;28;20196;-76
2023/01/26 00:50:30;;;;;;;0.10;0.10;;;0.10;99.90;12.80;163505.00;;;;4973108;28;20352;-76
2023/01/26 00:52:58;;;;;;;0.10;0.10;;;0.10;99.90;12.80;163505.00;;;;4990868;28;20200;-76
2023/01/26 00:55:31;;;;;;;0.10;0.10;;;0.20;99.90;12.80;163505.00;;;;4970025;28;20267;-76
2023/01/26 00:58:00;;;;;;;0.20;0.20;;;0.20;99.90;12.80;163505.00;;;;4988725;28;20700;-76
2023/01/26 01:00:32;;;;;;;0.17;0.17;;;0.20;99.90;12.80;163505.00;;;;4979726;28;20220;-76
2023/01/26 01:03:01;;;;;;;0.10;0.10;;;0.20;99.90;12.80;163505.00;;;;4985834;28;20232;-75
2023/01/26 01:05:31;;;;;;;0.10;0.10;;;0.20;99.90;12.80;163505.00;;;;4983049;28;20196;-75
2023/01/26 01:07:59;;;;;;;0.10;0.10;;;0.10;99.90;12.80;163505.00;;;;4966115;28;20609;-75
2023/01/26 01:10:27;;;;;;;0.05;0.05;;;0.10;99.90;12.80;163505.00;;;;4964812;28;20279;-75
2023/01/26 01:12:55;;;;;;;0.10;0.10;;;0.10;99.90;12.80;163505.00;;;;4987396;28;20201;-75
2023/01/26 01:15:24;;;;;;;0.13;0.13;;;0.10;99.90;12.80;163505.00;;;;4992231;28;20204;-75
2023/01/26 01:17:53;;;;;;;0.10;0.10;;;0.10;99.90;12.80;163505.00;;;;4982514;28;20192;-75
2023/01/26 01:20:22;;;;;;;0.10;0.10;;;0.20;99.90;12.80;163505.00;;;;4978374;28;20215;-76
2023/01/26 01:22:51;;;;;;;0.13;0.13;;;0.20;99.90;12.80;163505.00;;;;4991666;28;20223;-76
2023/01/26 01:25:19;;;;;;;0.10;0.10;;;0.20;99.90;12.80;163505.00;;;;4998781;28;20209;-76
2023/01/26 01:27:47;;;;;;;0.10;0.10;;;0.10;99.90;12.80;163505.00;;;;4976839;28;20201;-76
2023/01/26 01:30:15;;;;;;;0.15;0.15;;;0.10;99.90;12.80;163505.00;;;;4974239;28;20200;-75
2023/01/26 01:32:43;;;;;;;0.10;0.10;;;0.10;99.90;12.80;163505.00;;;;4972140;28;20217;-76
2023/01/26 01:35:13;;;;;;;0.10;0.10;;;0.20;99.90;12.80;163505.00;;;;4992068;28;20266;-77
2023/01/26 01:37:41;;;;;;;0.10;0.10;;;0.20;99.90;12.80;163505.00;;;;4994724;28;20201;-76
2023/01/26 01:40:13;;;;;;;0.10;0.10;;;0.20;99.90;12.80;163505.00;;;;4974835;28;20553;-77
2023/01/26 01:42:47;;;;;;;0.10;0.10;;;0.20;99.90;12.80;163505.00;;;;4993671;28;20204;-76
2023/01/26 01:45:44;;;;;;;0.10;0.10;;;0.20;99.90;12.80;163505.00;;;;4992801;28;20203;-76
2023/01/26 01:48:20;;;;;;;0.20;0.20;;;0.20;99.90;12.80;163505.00;;;;4947281;28;20270;-77
2023/01/26 01:50:53;;;;;;;0.10;0.10;;;0.10;99.90;12.80;163505.00;;;;4994061;28;20294;-77
2023/01/26 01:53:32;;;;;;;0.10;0.10;;;0.10;99.90;12.80;163505.00;;;;4988677;28;20205;-76
2023/01/26 01:56:06;;;;;;;0.10;0.10;;;0.20;99.90;12.80;163505.00;;;;4994710;28;20201;-77
2023/01/26 01:58:40;;;;;;;0.10;0.10;;;0.10;99.90;12.80;163505.00;;;;4987275;28;20211;-77
2023/01/26 02:01:09;;;;;;;0.10;0.10;;;0.20;99.90;12.80;163505.00;;;;4991970;28;20224;-77
2023/01/26 02:03:38;;;;;;;0.10;0.10;;;0.20;99.90;12.80;163505.00;;;;4975971;28;20216;-78
2023/01/26 02:06:15;;;;;;;0.10;0.10;;;0.20;99.90;12.80;163505.00;;;;4977072;28;20744;-78
2023/01/26 02:08:47;;;;;;;0.10;0.10;;;0.30;99.90;12.80;163505.00;;;;4989845;28;20664;-76
2023/01/26 02:11:23;;;;;;;0.10;0.10;;;0.30;99.90;12.80;163505.00;;;;4969085;28;20225;-76
2023/01/26 02:13:52;;;;;;;0.10;0.10;;;0.30;99.90;12.80;163505.00;;;;4983584;28;20212;-76
2023/01/26 02:16:20;;;;;;;0.10;0.10;;;0.30;99.90;12.80;163505.00;;;;4974784;28;20209;-76
2023/01/26 02:18:49;;;;;;;0.10;0.10;;;0.30;99.90;12.80;163505.00;;;;4994497;28;20192;-76
2023/01/26 02:21:21;;;;;;;0.10;0.10;;;0.30;99.90;12.80;163505.00;;;;4987579;28;20770;-76
2023/01/26 02:24:20;;;;;;;0.10;0.10;;;0.20;99.90;12.80;163505.00;;;;4967955;28;20204;-76
2023/01/26 02:26:53;;;;;;;0.15;0.15;;;0.30;99.90;12.80;163505.00;;;;4975125;28;20300;-76
2023/01/26 02:29:22;;;;;;;0.10;0.10;;;0.30;99.90;12.80;163505.00;;;;4984778;28;20209;-76
2023/01/26 02:31:52;;;;;;;0.20;0.20;;;0.30;99.90;12.80;163505.00;;;;4976062;28;20227;-77
2023/01/26 02:34:23;;;;;;;0.10;0.10;;;0.20;99.90;12.80;163505.00;;;;4995301;28;20292;-76
2023/01/26 02:37:00;;;;;;;0.10;0.10;;;0.20;99.90;12.80;163505.00;;;;4964903;28;20201;-76
2023/01/26 02:39:44;;;;;;;0.10;0.10;;;0.10;99.90;12.80;163505.00;;;;4970691;28;20200;-76
2023/01/26 02:45:00;;;;;;;0.10;0.10;;;0.20;99.90;12.80;163505.00;;;;4988190;28;20652;-77
2023/01/26 02:47:29;;;;;;;0.10;0.10;;;0.20;99.90;12.80;163505.00;;;;4971561;28;20287;-76
2023/01/26 02:49:57;;;;;;;0.10;0.10;;;0.20;99.90;12.80;163505.00;;;;4975714;28;20209;-76
2023/01/26 02:52:30;;;;;;;0.10;0.10;;;0.30;99.90;12.80;163505.00;;;;4976005;28;20312;-76
2023/01/26 02:55:24;;;;;;;0.10;0.10;;;0.30;99.90;12.80;163505.00;;;;4969234;28;20204;-75
2023/01/26 02:57:56;;;;;;;0.10;0.10;;;0.30;99.90;12.80;163505.00;;;;4969441;28;20291;-76
2023/01/26 03:00:28;;;;;;;0.17;0.17;;;0.30;99.90;12.80;163505.00;;;;4988348;28;20368;-74
2023/01/26 03:03:00;;;;;;;0.10;0.10;;;0.40;99.90;12.80;163505.00;;;;4991066;28;20200;-75
2023/01/26 03:05:30;;;;;;;0.10;0.10;;;0.30;99.90;12.80;163505.00;;;;4974854;28;20303;-74
2023/01/26 03:07:59;;;;;;;0.20;0.20;;;0.40;99.90;12.80;163505.00;;;;4973345;28;20291;-75
2023/01/26 03:10:34;;;;;;;0.10;0.10;;;0.40;99.90;12.80;163505.00;;;;4974351;28;20227;-75
2023/01/26 03:13:04;;;;;;;0.10;0.10;;;0.40;99.90;12.80;163505.00;;;;4967001;28;20699;-74
2023/01/26 03:15:42;;;;;;;0.10;0.10;;;0.30;99.90;12.80;163505.00;;;;4983681;28;20609;-73
2023/01/26 03:29:21;;;;;;;0.10;0.10;;;0.30;99.90;12.80;163505.00;;;;4989541;28;20227;-74
2023/01/26 03:31:49;;;;;;;0.10;0.10;;;0.40;99.90;12.80;163505.00;;;;4986049;28;20244;-73
2023/01/26 03:34:19;;;;;;;0.15;0.15;;;0.30;99.90;12.80;163505.00;;;;4975623;28;20247;-73
2023/01/26 03:36:48;;;;;;;0.20;0.20;;;0.30;99.90;12.80;163505.00;;;;4998732;28;20184;-75
2023/01/26 03:56:19;;;;;;;0.10;0.10;;;0.10;99.90;12.80;163505.00;;;;4985158;28;20204;-75
2023/01/26 03:58:51;;;;;;;0.10;0.10;;;0.20;99.90;12.80;163505.00;;;;4969294;28;20200;-75
2023/01/26 04:01:26;;;;;;;0.10;0.10;;;0.20;99.90;12.80;163505.00;;;;4981779;28;20323;-75
2023/01/26 04:09:36;;;;;;;0.10;0.10;;;0.10;99.90;12.80;163505.00;;;;4971733;28;20204;-75
2023/01/26 04:12:05;;;;;;;0.20;0.20;;;0.10;99.90;12.80;163505.00;;;;4993861;28;20294;-75
2023/01/26 04:23:00;;;;;;;0.10;0.10;;;0.00;99.90;12.80;163505.00;;;;4988897;28;20231;-73
2023/01/26 04:25:29;;;;;;;0.10;0.10;;;0.00;99.90;12.80;163505.00;;;;4972586;28;20267;-74
2023/01/26 04:27:58;;;;;;;0.10;0.10;;;0.10;99.90;12.80;163505.00;;;;4970323;28;20281;-75
2023/01/26 04:30:26;;;;;;;0.20;0.20;;;0.10;99.90;12.80;163505.00;;;;4972655;28;20688;-74
2023/01/26 04:32:55;;;;;;;0.10;0.10;;;0.10;99.90;12.80;163505.00;;;;4987877;28;20192;-75
2023/01/26 04:35:23;;;;;;;0.13;0.13;;;0.10;99.90;12.80;163505.00;;;;4971677;28;20219;-74
2023/01/26 04:37:52;;;;;;;0.10;0.10;;;0.10;99.90;12.80;163505.00;;;;4966944;28;20301;-74
2023/01/26 04:40:20;;;;;;;0.10;0.10;;;0.00;99.90;12.80;163505.00;;;;4988153;28;20568;-74
2023/01/26 04:42:49;;;;;;;0.10;0.10;;;0.00;99.90;12.80;163505.00;;;;4973182;28;20208;-74
2023/01/26 04:45:17;;;;;;;0.20;0.20;;;0.00;99.90;12.80;163505.00;;;;4988151;28;20735;-74
2023/01/26 04:47:46;;;;;;;0.10;0.10;;;0.00;99.90;12.80;163505.00;;;;4975911;28;20239;-74
2023/01/26 04:50:18;;;;;;;0.15;0.15;;;0.10;99.90;12.80;163505.00;;;;4972352;28;20216;-74
2023/01/26 04:52:47;;;;;;;0.20;0.20;;;0.10;99.90;12.80;163505.00;;;;4987578;28;21505;-74
2023/01/26 04:55:15;;;;;;;0.10;0.10;;;0.10;99.90;12.80;163505.00;;;;4977710;28;20204;-74
2023/01/26 04:57:44;;;;;;;0.10;0.10;;;0.20;99.90;12.80;163505.00;;;;4977249;28;20251;-74
2023/01/26 05:00:13;;;;;;;0.10;0.10;;;0.20;99.90;12.80;163505.00;;;;4977258;28;20204;-74
2023/01/26 05:02:42;;;;;;;0.10;0.10;;;0.20;99.90;12.80;163505.00;;;;4985376;23;20715;-80
2023/01/26 05:05:10;;;;;;;0.10;0.10;;;0.20;99.90;12.80;163505.00;;;;4973120;28;20227;-76
2023/01/26 05:07:41;;;;;;;0.10;0.10;;;0.20;99.90;12.80;163505.00;;;;4980868;28;20204;-79
2023/01/26 05:10:11;;;;;;;0.10;0.10;;;0.30;99.90;12.80;163505.00;;;;4966957;28;20216;-77
2023/01/26 05:13:02;;;;;;;0.10;0.10;;;0.30;99.90;12.80;163505.00;;;;4935297;28;20210;-79
2023/01/26 05:15:48;;;;;;;0.10;0.10;;;0.30;99.90;12.80;163505.00;;;;4945219;28;20201;-78
2023/01/26 05:18:38;;;;;;;0.10;0.10;;;0.20;99.90;12.80;163505.00;;;;4960724;28;20205;-77
2023/01/26 05:21:26;;;;;;;0.20;0.20;;;0.20;99.90;12.80;163505.00;;;;4966699;28;20233;-76
2023/01/26 05:23:55;;;;;;;0.10;0.10;;;0.10;99.90;12.80;163505.00;;;;4944315;29;20765;-78
2023/01/26 05:27:19;;;;;;;0.20;0.20;;;0.10;99.90;12.80;163505.00;;;;4980085;28;20388;-77
2023/01/26 05:29:43;;;;;;;0.10;0.10;;;0.20;99.90;12.80;163505.00;;;;4944432;28;20201;-77
2023/01/26 05:32:11;;;;;;;0.10;0.10;;;0.10;99.90;12.80;163505.00;;;;4972377;28;20249;-77
2023/01/26 05:34:40;;;;;;;0.20;0.20;;;0.20;99.90;12.80;163505.00;;;;4952801;28;20213;-79
2023/01/26 05:37:09;;;;;;;0.10;0.10;;;0.20;99.90;12.80;163505.00;;;;4949407;29;20210;-79
2023/01/26 05:39:44;;;;;;;0.10;0.10;;;0.20;99.90;12.80;163505.00;;;;4959336;28;20279;-78
2023/01/26 05:42:13;;;;;;;0.10;0.10;;;0.30;99.90;12.80;163505.00;;;;4946414;29;20235;-77
2023/01/26 05:45:11;;;;;;;0.10;0.10;;;0.30;99.90;12.80;163505.00;;;;4956727;28;20559;-76
2023/01/26 05:47:41;;;;;;;0.10;0.10;;;0.30;99.90;12.80;163505.00;;;;4967553;28;20205;-76
2023/01/26 05:50:11;;;;;;;0.10;0.10;;;0.30;99.90;12.80;163505.00;;;;4974942;28;20271;-78
2023/01/26 05:52:45;;;;;;;0.10;0.10;;;0.30;99.90;12.80;163505.00;;;;4942011;28;20225;-78
2023/01/26 05:55:15;;;;;;;0.10;0.10;;;0.30;99.90;12.80;163505.00;;;;4945641;29;20226;-77
2023/01/26 05:57:43;;;;;;;0.10;0.10;;;0.30;99.90;12.80;163505.00;;;;4972967;28;20322;-77
2023/01/26 06:00:14;;;;;;;0.10;0.10;;;0.30;99.90;12.80;163505.00;;;;4938579;29;20273;-78
2023/01/26 06:02:48;;;;;;;0.10;0.10;;;0.30;99.90;12.80;163505.00;;;;4940998;28;20715;-78
2023/01/26 06:05:17;;;;;;;0.10;0.10;;;0.30;99.90;12.80;163505.00;;;;4949944;28;20214;-77
2023/01/26 06:07:47;;;;;;;0.10;0.10;;;0.30;99.90;12.80;163505.00;;;;4958474;28;20193;-77
2023/01/26 06:10:21;;;;;;;0.10;0.10;;;0.20;99.90;12.80;163505.00;;;;4951842;28;20198;-77
2023/01/26 06:13:01;;;;;;;0.17;0.17;;;0.20;99.90;12.80;163505.00;;;;4957459;28;20209;-77
2023/01/26 06:15:50;;;;;;;0.10;0.10;;;0.30;99.90;12.80;163505.00;;;;4963231;28;20221;-76
2023/01/26 06:18:21;;;;;;;0.10;0.10;;;0.30;99.90;12.80;163505.00;;;;4950521;28;20202;-77
2023/01/26 06:20:53;;;;;;;0.10;0.10;;;0.40;99.90;12.80;163505.00;;;;4942766;28;20242;-77
2023/01/26 06:23:21;;;;;;;0.10;0.10;;;0.40;99.90;12.80;163505.00;;;;4956869;28;20212;-77
2023/01/26 06:25:51;;;;;;;0.10;0.10;;;0.40;99.90;12.80;163505.00;;;;4945734;29;20707;-76
2023/01/26 06:28:19;;;;;;;0.10;0.10;;;0.30;99.90;12.80;163505.00;;;;4944885;28;20198;-75
2023/01/26 06:30:48;;;;;;;0.10;0.10;;;0.30;99.90;12.80;163505.00;;;;4961930;28;20202;-74
2023/01/26 06:33:16;;;;;;;0.10;0.10;;;0.30;99.90;12.80;163505.00;;;;4947761;28;20385;-78
2023/01/26 06:35:45;;;;;;;0.10;0.10;;;0.30;99.90;12.80;163505.00;;;;4953111;28;20658;-76
2023/01/26 06:38:14;;;;;;;0.10;0.10;;;0.30;99.90;12.80;163505.00;;;;4963991;28;20213;-77
2023/01/26 06:40:44;;;;;;;0.10;0.10;;;0.30;99.90;12.80;163505.00;;;;4947749;28;20265;-77
2023/01/26 06:43:13;;;;;;;0.10;0.10;;;0.40;99.90;12.80;163505.00;;;;4957571;28;20209;-77
2023/01/26 06:45:42;;;;;;;0.10;0.10;;;0.30;99.90;12.80;163505.00;;;;4956713;28;20214;-77
2023/01/26 06:48:10;;;;;;;0.10;0.10;;;0.30;99.90;12.80;163505.00;;;;4959151;28;20222;-77
2023/01/26 06:50:40;;;;;;;0.10;0.10;;;0.30;99.90;12.80;163505.00;;;;4974186;28;20201;-77
2023/01/26 06:53:30;;;;;;;0.10;0.10;;;0.30;99.90;12.80;163505.00;;;;4955800;29;20201;-76
2023/01/26 06:56:16;;;;;;;0.10;0.10;;;0.40;99.90;12.80;163505.00;;;;4969795;28;20238;-76
2023/01/26 06:58:58;;;;;;;0.10;0.10;;;0.40;99.90;12.80;163505.00;;;;4960311;28;20224;-76
2023/01/26 07:01:48;;;;;;;0.17;0.17;;;0.40;99.90;12.80;163505.00;;;;4976817;28;20297;-77
2023/01/26 07:04:17;;;;;;;0.10;0.10;;;0.30;99.90;12.80;163505.00;;;;4956418;28;20212;-76
2023/01/26 07:06:45;;;;;;;0.10;0.10;;;0.30;99.90;12.80;163505.00;;;;4962060;28;20231;-77
2023/01/26 07:09:13;;;;;;;0.10;0.10;;;0.30;99.90;12.80;163505.00;;;;4965431;28;20214;-78
2023/01/26 07:11:41;;;;;;;0.10;0.10;;;0.40;99.90;12.80;163505.00;;;;4965271;28;20213;-79
2023/01/26 07:14:10;;;;;;;0.10;0.10;;;0.40;99.90;12.80;163505.00;;;;4971933;28;20214;-76
2023/01/26 07:16:38;;;;;;;0.10;0.10;;;0.40;99.90;12.80;163505.00;;;;4965829;28;20209;-76
2023/01/26 07:19:06;;;;;;;0.10;0.10;;;0.40;99.90;12.80;163505.00;;;;4948368;28;20205;-76
2023/01/26 07:21:37;;;;;;;0.10;0.10;;;0.40;99.90;12.80;163505.00;;;;4965878;28;20293;-77
2023/01/26 07:24:06;;;;;;;0.10;0.10;;;0.40;99.90;12.80;163505.00;;;;4960807;28;20273;-77
2023/01/26 07:26:35;;;;;;;0.17;0.17;;;0.40;99.90;12.80;163505.00;;;;4966389;28;20439;-77
2023/01/26 07:29:02;;;;;;;0.10;0.10;;;0.40;99.90;12.80;163505.00;;;;4963909;28;20252;-78
2023/01/26 07:31:32;;;;;;;0.10;0.10;;;0.40;99.90;12.80;163505.00;;;;4956341;28;20214;-77
2023/01/26 07:34:00;;;;;;;0.20;0.20;;;0.40;99.90;12.80;163505.00;;;;4960143;28;20202;-78
2023/01/26 07:36:28;;;;;;;0.10;0.10;;;0.40;99.90;12.80;163505.00;;;;4956305;28;20738;-77
2023/01/26 07:38:56;;;;;;;0.10;0.10;;;0.40;99.90;12.80;163505.00;;;;4940914;28;20269;-77
2023/01/26 07:41:24;;;;;;;0.10;0.10;;;0.40;99.90;12.80;163505.00;;;;4969578;28;20285;-78
2023/01/26 07:43:52;;;;;;;0.10;0.10;;;0.40;99.90;12.80;163505.00;;;;4959899;28;20650;-77
2023/01/26 07:46:20;;;;;;;0.10;0.10;;;0.40;99.90;12.80;163505.00;;;;4956902;28;20249;-77
2023/01/26 07:48:50;;;;;;;0.13;0.13;;;0.40;99.90;12.80;163505.00;;;;4973092;28;20228;-77
2023/01/26 07:51:17;;;;;;;0.10;0.10;;;0.40;99.90;12.80;163505.00;;;;4957289;28;20276;-77
2023/01/26 07:53:48;;;;;;;0.10;0.10;;;0.50;99.90;12.80;163505.00;;;;4955186;28;20197;-77
2023/01/26 07:56:19;;;;;;;0.10;0.10;;;0.40;99.90;12.80;163505.00;;;;4957957;28;20686;-78
2023/01/26 07:58:50;;;;;;;0.10;0.10;;;0.30;99.90;12.80;163505.00;;;;4949099;28;20209;-78
2023/01/26 08:01:19;;;;;;;0.10;0.10;;;0.30;99.90;12.80;163505.00;;;;4961359;28;20613;-77
2023/01/26 08:03:52;;;;;;;0.10;0.10;;;0.30;99.90;12.80;163505.00;;;;4955609;28;20206;-77
2023/01/26 08:06:21;;;;;;;0.10;0.10;;;0.30;99.90;12.80;163505.00;;;;4942717;28;20724;-77
2023/01/26 08:08:52;;;;;;;0.10;0.10;;;0.30;99.90;12.80;163505.00;;;;4957083;28;20230;-77
2023/01/26 08:11:23;;;;;;;0.10;0.10;;;0.30;99.90;12.80;163505.00;;;;4965211;28;20225;-78
2023/01/26 08:13:51;;;;;;;0.10;0.10;;;0.30;99.90;12.80;163505.00;;;;4965478;28;20197;-77
2023/01/26 08:16:19;;;;;;;0.10;0.10;;;0.30;99.90;12.80;163505.00;;;;4960799;28;20210;-78
2023/01/26 08:18:48;;;;;;;0.10;0.10;;;0.30;99.90;12.80;163505.00;;;;4965617;28;20245;-77
2023/01/26 08:21:19;;;;;;;0.10;0.10;;;0.40;99.90;12.80;163505.00;;;;4961450;28;20277;-77
2023/01/26 08:23:49;;;;;;;0.10;0.10;;;0.40;99.90;12.80;163505.00;;;;4965541;28;20205;-77
2023/01/26 08:26:18;;;;;;;0.10;0.10;;;0.40;99.90;12.80;163505.00;;;;4966388;28;20194;-77
2023/01/26 08:28:47;;;;;;;0.10;0.10;;;0.30;99.90;12.80;163505.00;;;;4960855;28;20200;-77
2023/01/26 08:31:19;;;;;;;0.10;0.10;;;0.40;99.90;12.80;163505.00;;;;4952738;28;20281;-77
2023/01/26 08:33:50;;;;;;;0.10;0.10;;;0.40;99.90;12.80;163505.00;;;;4967413;28;20205;-76
2023/01/26 08:36:20;;;;;;;0.10;0.10;;;0.50;99.90;12.80;163505.00;;;;4953295;28;20205;-77
2023/01/26 08:38:50;;;;;;;0.10;0.10;;;0.50;99.90;12.80;163505.00;;;;4968009;28;20209;-76
2023/01/26 08:41:18;;;;;;;0.10;0.10;;;0.50;99.90;12.80;163505.00;;;;4959012;28;20277;-77
2023/01/26 08:43:46;;;;;;;0.10;0.10;;;0.40;99.90;12.80;163505.00;;;;4972147;28;20245;-77
2023/01/26 08:46:15;;;;;;;0.13;0.13;;;0.30;99.90;12.80;163505.00;;;;4962467;28;20761;-77
2023/01/26 08:48:43;;;;;;;0.10;0.10;;;0.30;99.90;12.80;163505.00;;;;4975675;28;20201;-76
2023/01/26 08:51:11;;;;;;;0.10;0.10;;;0.20;99.90;12.80;163505.00;;;;4981847;28;20217;-75
2023/01/26 08:53:40;;;;;;;0.10;0.10;;;0.20;99.90;12.80;163505.00;;;;4980476;28;20241;-76
2023/01/26 08:56:12;;;;;;;0.10;0.10;;;0.20;99.90;12.80;163505.00;;;;4978076;28;20318;-76
2023/01/26 08:58:40;;;;;;;0.10;0.10;;;0.30;99.90;12.80;163505.00;;;;4969700;28;20211;-77
2023/01/26 09:01:12;;;;;;;0.10;0.10;;;0.30;99.90;12.80;163505.00;;;;4960095;28;20233;-77
2023/01/26 09:03:40;;;;;;;0.10;0.10;;;0.30;99.90;12.80;163505.00;;;;4958579;28;20251;-78
2023/01/26 09:06:12;;;;;;;0.10;0.10;;;0.40;99.90;12.80;163505.00;;;;4958223;28;20257;-77
2023/01/26 09:08:42;;;;;;;0.10;0.10;;;0.40;99.90;12.80;163505.00;;;;4960055;28;20226;-76
2023/01/26 09:11:11;;;;;;;0.10;0.10;;;0.40;99.90;12.80;163505.00;;;;4953742;28;20229;-77
2023/01/26 09:13:39;;;;;;;0.10;0.10;;;0.40;99.90;12.80;163505.00;;;;4963189;28;20677;-77
2023/01/26 09:16:14;;;;;;;0.20;0.20;;;0.40;99.90;12.80;163505.00;;;;4959022;28;20584;-77
2023/01/26 09:18:43;;;;;;;0.10;0.10;;;0.40;99.90;12.80;163505.00;;;;4952052;28;20197;-76
2023/01/26 09:21:11;;;;;;;0.10;0.10;;;0.40;99.90;12.80;163505.00;;;;4959649;28;20711;-76
2023/01/26 09:23:40;;;;;;;0.10;0.10;;;0.50;99.90;12.80;163505.00;;;;4951789;28;20511;-77
2023/01/26 09:26:08;;;;;;;0.10;0.10;;;0.50;99.90;12.80;163505.00;;;;4956005;28;20220;-77
2023/01/26 09:28:36;;;;;;;0.10;0.10;;;0.50;99.90;12.80;163505.00;;;;4964422;28;20225;-78
2023/01/26 09:31:07;;;;;;;0.10;0.10;;;0.50;99.90;12.80;163505.00;;;;4955277;28;20213;-76
2023/01/26 09:33:36;;;;;;;0.10;0.10;;;0.50;99.90;12.80;163505.00;;;;4948769;28;20288;-77
2023/01/26 09:36:07;;;;;;;0.10;0.10;;;0.50;99.90;12.80;163505.00;;;;4962834;28;20198;-77
2023/01/26 09:38:35;;;;;;;0.10;0.10;;;0.50;99.90;12.80;163505.00;;;;4965929;28;20324;-77
2023/01/26 09:41:15;;;;;;;0.10;0.10;;;0.60;99.90;12.80;163505.00;;;;4966803;28;20276;-76
2023/01/26 09:43:50;;;;;;;0.10;0.10;;;0.60;99.90;12.80;163505.00;;;;4964987;28;20666;-77
2023/01/26 09:46:23;;;;;;;0.10;0.10;;;0.60;99.90;12.80;163505.00;;;;4960457;28;20213;-78
2023/01/26 09:49:05;;;;;;;0.10;0.10;;;0.60;99.90;12.80;163505.00;;;;4989698;28;20668;-78
2023/01/26 09:51:37;;;;;;;0.10;0.10;;;0.70;99.90;12.80;163505.00;;;;4970975;28;20228;-79
2023/01/26 09:54:23;;;;;;;0.10;0.10;;;0.60;99.90;12.80;163505.00;;;;4969936;28;20209;-78
2023/01/26 09:56:54;;;;;;;0.10;0.10;;;0.60;99.90;12.80;163505.00;;;;4976023;28;20194;-80
2023/01/26 09:59:30;;;;;;;0.10;0.10;;;0.60;99.90;12.80;163505.00;;;;4975798;28;20220;-78
2023/01/26 10:02:16;;;;;;;0.10;0.10;;;0.50;99.90;12.80;163505.00;;;;4962329;28;20231;-78
2023/01/26 10:04:51;;;;;;;0.10;0.10;;;0.40;99.90;12.80;163505.00;;;;4956182;28;20291;-77
2023/01/26 10:07:20;;;;;;;0.10;0.10;;;0.50;99.90;12.80;163505.00;;;;4965230;28;20228;-79
2023/01/26 10:09:53;;;;;;;0.10;0.10;;;0.70;99.90;12.80;163505.00;;;;4960688;28;20198;-77
2023/01/26 10:12:27;;;;;;;0.10;0.10;;;0.80;99.90;12.80;163505.00;;;;4942453;28;20288;-76
2023/01/26 10:15:04;;;;;;;0.10;0.10;;;0.80;99.90;12.80;163505.00;;;;4957079;28;20599;-77
2023/01/26 10:17:38;;;;;;;0.05;0.05;;;0.80;99.90;12.80;163505.00;;;;4964720;28;20209;-77
2023/01/26 10:20:22;;;;;;;0.10;0.10;;;0.80;99.90;12.80;163505.00;;;;4976571;28;20206;-77
2023/01/26 10:22:54;;;;;;;0.10;0.10;;;0.80;99.90;12.80;163505.00;;;;4951319;28;20621;-77
2023/01/26 10:25:33;;;;;;;0.10;0.10;;;1.00;99.90;12.80;163505.00;;;;4967251;28;20269;-77
2023/01/26 10:28:12;;;;;;;0.10;0.10;;;1.00;99.90;12.80;163505.00;;;;4967390;28;20210;-77
2023/01/26 10:30:42;;;;;;;0.10;0.10;;;1.10;99.90;12.80;163505.00;;;;4953303;28;20213;-77
2023/01/26 10:33:17;;;;;;;0.10;0.10;;;1.10;99.90;12.80;163505.00;;;;4971668;28;20213;-76
2023/01/26 10:35:46;;;;;;;0.10;0.10;;;1.20;99.90;12.80;163505.00;;;;4969731;28;20213;-77
2023/01/26 10:38:43;;;;;;;0.10;0.10;;;1.20;99.90;12.80;163505.00;;;;4991260;28;20200;-77
2023/01/26 10:41:25;;;;;;;0.10;0.10;;;1.30;99.90;12.80;163505.00;;;;4981204;28;20744;-77
2023/01/26 10:43:58;;;;;;;0.10;0.10;;;1.30;99.90;12.80;163505.00;;;;4965275;28;20205;-78
2023/01/26 10:46:33;;;;;;;0.10;0.10;;;1.30;99.90;12.80;163505.00;;;;4958159;28;20198;-78
2023/01/26 10:49:13;;;;;;;0.10;0.10;;;1.30;99.90;12.80;163505.00;;;;4950227;29;20261;-77
2023/01/26 10:51:45;;;;;;;0.10;0.10;;;1.40;99.90;12.80;163505.00;;;;4971674;28;20217;-77
2023/01/26 10:54:22;;;;;;;0.10;0.10;;;1.40;99.90;12.80;163505.00;;;;4975506;28;20209;-77
2023/01/26 10:56:55;;;;;;;0.10;0.10;;;1.40;99.90;12.80;163505.00;;;;4954034;29;20202;-77
2023/01/26 10:59:32;;;;;;;0.10;0.10;;;1.40;99.90;12.80;163505.00;;;;4975851;28;20209;-77
2023/01/26 11:02:17;;;;;;;0.10;0.10;;;1.30;99.90;12.80;163505.00;;;;4973248;28;20241;-77
2023/01/26 11:05:04;;;;;;;0.10;0.10;;;1.30;99.90;12.80;163505.00;;;;4958330;28;20197;-77
2023/01/26 11:07:36;;;;;;;0.10;0.10;;;1.30;99.90;12.80;163505.00;;;;4956993;28;20189;-76
2023/01/26 11:10:28;;;;;;;0.10;0.10;;;1.40;99.90;12.80;163505.00;;;;4963317;28;20562;-77
2023/01/26 11:13:16;;;;;;;0.10;0.10;;;1.40;99.90;12.80;163505.00;;;;4955040;28;20276;-76
2023/01/26 11:15:48;;;;;;;0.10;0.10;;;1.40;99.90;12.80;163505.00;;;;4959814;28;20206;-77
2023/01/26 11:18:34;;;;;;;0.10;0.10;;;1.40;99.90;12.80;163505.00;;;;4962268;28;20497;-77
2023/01/26 11:21:15;;;;;;;0.10;0.10;;;1.40;99.90;12.80;163505.00;;;;4956647;28;20533;-77
2023/01/26 11:23:56;;;;;;;0.10;0.10;;;1.40;99.90;12.80;163505.00;;;;4949097;28;20212;-77
2023/01/26 11:27:06;;;;;;;0.10;0.10;;;1.30;99.90;12.80;163505.00;;;;4957010;28;20234;-77
2023/01/26 11:29:52;;;;;;;0.10;0.10;;;1.40;99.90;12.80;163505.00;;;;4953689;28;20296;-77
2023/01/26 11:32:35;;;;;;;0.10;0.10;;;1.40;99.90;12.80;163505.00;;;;4957570;28;20229;-76
2023/01/26 11:35:28;;;;;;;0.10;0.10;;;1.40;99.90;12.80;163505.00;;;;4955713;28;20202;-76
2023/01/26 11:38:14;;;;;;;0.10;0.10;;;1.30;99.90;12.80;163505.00;;;;4957162;28;20197;-77
2023/01/26 11:40:54;;;;;;;0.10;0.10;;;1.30;99.90;12.80;163505.00;;;;4965087;28;20248;-77
2023/01/26 11:44:02;;;;;;;0.10;0.10;;;1.20;99.90;12.80;163505.00;;;;4961800;28;20190;-77
2023/01/26 11:46:52;;;;;;;0.10;0.10;;;1.20;99.90;12.80;163505.00;;;;4955024;28;20269;-77
2023/01/26 11:49:47;;;;;;;0.00;0.00;;;1.20;99.90;12.80;163505.00;;;;4955338;28;20289;-77
2023/01/26 11:52:28;;;;;;;0.10;0.10;;;1.20;99.90;12.80;163505.00;;;;4952058;28;20252;-76
2023/01/26 11:55:16;;;;;;;0.10;0.10;;;1.20;99.90;12.80;163505.00;;;;4961522;28;20193;-77
2023/01/26 11:58:04;;;;;;;0.20;0.20;;;1.20;99.90;12.80;163505.00;;;;4954334;28;20194;-77
2023/01/26 12:00:40;;;;;;;0.13;0.13;;;1.30;99.90;12.80;163505.00;;;;4963548;28;20632;-77
2023/01/26 12:03:21;;;;;;;0.10;0.10;;;1.20;99.90;12.80;163505.00;;;;4965466;28;20208;-76
2023/01/26 12:05:55;;;;;;;0.10;0.10;;;1.20;99.90;12.80;163505.00;;;;4964976;28;20204;-77
2023/01/26 12:08:37;;;;;;;0.10;0.10;;;1.10;99.90;12.80;163505.00;;;;4966419;28;20225;-77